Time;durP1;ratioP1;P1;durP2;ratioP2;P2;SDS_P1;SDS_P2;PMS_P1;PMS_P2;Temp;Humidity;BMP_temperature;BMP_pressure;BME280_temperature;BME280_humidity;BME280_pressure;Samples;Min_cycle;Max_cycle;Signal;HPM_P1;HPM_P2
2023/03/16 00:02:11;;;;;;;4.47;0.90;;;1.60;99.90;;;;;;5067957;28;20808;-39
2023/03/16 00:04:37;;;;;;;4.88;0.82;;;1.50;99.90;;;;;;5067267;28;20378;-39
2023/03/16 00:07:04;;;;;;;7.93;1.25;;;3.30;99.90;;;;;;5067335;28;20060;-39
2023/03/16 00:09:30;;;;;;;3.85;1.00;;;1.70;99.90;;;;;;5049910;28;20051;-39
2023/03/16 00:12:02;;;;;;;3.05;0.80;;;1.70;99.90;;;;;;5068062;28;20048;-39
2023/03/16 00:14:28;;;;;;;6.10;0.60;;;1.80;99.90;;;;;;5068232;28;20052;-39
2023/03/16 00:16:54;;;;;;;5.47;0.93;;;1.60;99.90;;;;;;5067498;28;20048;-39
2023/03/16 00:19:23;;;;;;;5.13;0.70;;;1.80;99.90;;;;;;5066851;28;20052;-39
2023/03/16 00:21:50;;;;;;;3.92;0.60;;;1.90;99.90;;;;;;5067163;28;20115;-39
2023/03/16 00:24:19;;;;;;;4.32;1.08;;;2.00;99.90;;;;;;5066885;28;20468;-39
2023/03/16 00:26:47;;;;;;;3.65;1.10;;;1.80;99.90;;;;;;5066738;28;20052;-39
2023/03/16 00:29:13;;;;;;;6.45;0.80;;;2.00;99.90;;;;;;5066552;28;20117;-39
2023/03/16 00:31:42;;;;;;;5.63;1.08;;;2.10;99.90;;;;;;5066845;28;20048;-39
2023/03/16 00:34:12;;;;;;;7.63;1.25;;;2.00;99.90;;;;;;5067054;28;20044;-39
2023/03/16 00:36:38;;;;;;;4.22;0.98;;;1.80;99.90;;;;;;5067161;28;20117;-39
2023/03/16 00:39:09;;;;;;;5.05;1.05;;;2.00;99.90;;;;;;5067506;28;20083;-39
2023/03/16 00:41:36;;;;;;;5.20;1.00;;;2.00;99.90;;;;;;5049638;28;20044;-39
2023/03/16 00:44:05;;;;;;;4.82;1.20;;;2.00;99.90;;;;;;5066851;28;20049;-39
2023/03/16 00:46:31;;;;;;;7.72;1.35;;;2.00;99.90;;;;;;5066944;28;20053;-39
2023/03/16 00:48:57;;;;;;;8.07;1.17;;;2.90;99.90;;;;;;5067474;28;20067;-39
2023/03/16 00:51:23;;;;;;;7.07;1.40;;;2.00;99.90;;;;;;5066644;28;20071;-39
2023/03/16 00:53:49;;;;;;;4.63;1.67;;;2.20;99.90;;;;;;5066987;28;20052;-39
2023/03/16 00:56:15;;;;;;;4.20;1.77;;;2.00;99.90;;;;;;5066762;28;20164;-39
2023/03/16 00:58:42;;;;;;;5.60;1.77;;;1.90;99.90;;;;;;5066771;28;20041;-39
2023/03/16 01:01:13;;;;;;;5.57;1.38;;;2.00;99.90;;;;;;5065394;28;20072;-39
2023/03/16 01:03:39;;;;;;;5.03;1.38;;;1.90;99.90;;;;;;5048511;28;20527;-39
2023/03/16 01:06:11;;;;;;;7.43;1.95;;;2.00;99.90;;;;;;5066621;28;20044;-39
2023/03/16 01:08:38;;;;;;;5.63;2.13;;;1.90;99.90;;;;;;5066888;28;20048;-39
2023/03/16 01:11:06;;;;;;;6.63;1.70;;;1.90;99.90;;;;;;5066584;28;20541;-39
2023/03/16 01:13:32;;;;;;;4.82;1.85;;;2.00;99.90;;;;;;5067709;28;20032;-39
2023/03/16 01:15:59;;;;;;;8.38;1.67;;;2.10;99.90;;;;;;5067652;28;20085;-39
2023/03/16 01:18:25;;;;;;;4.72;1.98;;;1.80;99.90;;;;;;5067069;28;20052;-39
2023/03/16 01:20:52;;;;;;;7.80;1.67;;;2.00;99.90;;;;;;5067674;28;20052;-39
2023/03/16 01:23:18;;;;;;;7.03;1.80;;;1.90;99.90;;;;;;5066982;28;20051;-39
2023/03/16 01:25:51;;;;;;;5.72;1.92;;;1.90;99.90;;;;;;5067513;28;20075;-39
2023/03/16 01:28:19;;;;;;;6.78;1.90;;;2.00;99.90;;;;;;5066770;28;20106;-39
2023/03/16 01:30:45;;;;;;;5.50;1.50;;;1.90;99.90;;;;;;5066705;28;20568;-39
2023/03/16 01:33:10;;;;;;;5.18;1.73;;;1.90;99.90;;;;;;5066167;28;20136;-39
2023/03/16 01:35:36;;;;;;;6.60;1.52;;;2.00;99.90;;;;;;5066795;28;20059;-39
2023/03/16 01:38:03;;;;;;;6.28;2.28;;;1.90;99.90;;;;;;5066928;28;20045;-39
2023/03/16 01:40:30;;;;;;;3.65;1.63;;;1.90;99.90;;;;;;5066322;28;20074;-39
2023/03/16 01:43:01;;;;;;;3.95;1.70;;;1.70;99.90;;;;;;5066392;28;20036;-39
2023/03/16 01:46:01;;;;;;;6.40;1.73;;;2.30;99.90;;;;;;5066023;28;20423;-39
2023/03/16 01:48:28;;;;;;;5.93;2.13;;;1.90;99.90;;;;;;5065994;28;20266;-39
2023/03/16 01:50:55;;;;;;;7.38;2.10;;;1.90;99.90;;;;;;5066124;28;20079;-39
2023/03/16 01:53:23;;;;;;;7.57;1.92;;;1.90;99.90;;;;;;5066026;28;20209;-39
2023/03/16 01:55:50;;;;;;;4.60;2.20;;;1.90;99.90;;;;;;5066972;28;20492;-39
2023/03/16 01:58:16;;;;;;;8.15;3.83;;;2.20;99.90;;;;;;5066629;28;20043;-39
2023/03/16 02:00:44;;;;;;;6.47;2.20;;;1.90;99.90;;;;;;5066666;28;20048;-39
2023/03/16 02:03:17;;;;;;;10.45;2.28;;;1.90;99.90;;;;;;5066592;28;20049;-39
2023/03/16 02:05:51;;;;;;;9.95;2.10;;;1.80;99.90;;;;;;5066380;28;20466;-39
2023/03/16 02:08:18;;;;;;;8.85;2.50;;;1.90;99.90;;;;;;5066348;28;20044;-39
2023/03/16 02:10:44;;;;;;;3.42;1.60;;;1.90;99.90;;;;;;5066371;28;20045;-39
2023/03/16 02:13:10;;;;;;;6.10;2.15;;;1.90;99.90;;;;;;5066793;28;20048;-39
2023/03/16 02:15:37;;;;;;;4.90;1.90;;;1.80;99.90;;;;;;5066768;28;20085;-39
2023/03/16 02:18:04;;;;;;;4.63;1.92;;;1.80;99.90;;;;;;5066067;28;20402;-39
2023/03/16 02:20:55;;;;;;;8.23;2.53;;;1.50;99.90;;;;;;5066154;28;20040;-39
2023/03/16 02:23:24;;;;;;;6.05;1.75;;;1.40;99.90;;;;;;5066007;28;20055;-38
2023/03/16 02:26:06;;;;;;;4.10;1.65;;;1.60;99.90;;;;;;5066476;28;20093;-39
2023/03/16 02:29:04;;;;;;;5.82;1.73;;;1.40;99.90;;;;;;5066399;28;20044;-39
2023/03/16 02:31:30;;;;;;;5.35;1.83;;;1.60;99.90;;;;;;5066291;28;20044;-39
2023/03/16 02:33:57;;;;;;;5.95;2.35;;;1.60;99.90;;;;;;5065796;28;20044;-39
2023/03/16 02:36:23;;;;;;;7.15;2.17;;;1.70;99.90;;;;;;5065894;28;20829;-39
2023/03/16 02:38:49;;;;;;;5.60;1.75;;;1.80;99.90;;;;;;5047727;28;20048;-39
2023/03/16 02:41:17;;;;;;;7.90;2.03;;;1.70;99.90;;;;;;5066144;28;20090;-39
2023/03/16 02:43:50;;;;;;;9.75;2.22;;;1.70;99.90;;;;;;5065769;28;20045;-39
2023/03/16 02:46:18;;;;;;;8.90;1.90;;;2.20;99.90;;;;;;5065976;28;20057;-39
2023/03/16 02:48:56;;;;;;;5.60;2.15;;;2.00;99.90;;;;;;5066060;28;20293;-39
2023/03/16 02:51:22;;;;;;;7.55;2.25;;;2.00;99.90;;;;;;5065610;28;20569;-39
2023/03/16 02:53:48;;;;;;;4.43;1.60;;;2.00;99.90;;;;;;5065871;28;20143;-39
2023/03/16 02:56:13;;;;;;;5.78;2.20;;;2.00;99.90;;;;;;5065960;28;20125;-39
2023/03/16 02:58:39;;;;;;;6.05;1.55;;;2.20;99.90;;;;;;5065940;28;20044;-39
2023/03/16 03:01:05;;;;;;;8.80;2.30;;;2.20;99.90;;;;;;5065643;28;20048;-39
2023/03/16 03:03:33;;;;;;;5.60;1.80;;;2.10;99.90;;;;;;5065226;28;20074;-39
2023/03/16 03:05:59;;;;;;;9.35;2.28;;;2.30;99.90;;;;;;5065465;28;20606;-39
2023/03/16 03:08:24;;;;;;;6.07;2.20;;;2.40;99.90;;;;;;5065524;28;20055;-39
2023/03/16 03:10:50;;;;;;;12.50;2.10;;;2.20;99.90;;;;;;5047364;28;20486;-39
2023/03/16 03:13:16;;;;;;;4.38;2.08;;;2.40;99.90;;;;;;5065819;28;20044;-39
2023/03/16 03:15:41;;;;;;;11.98;2.42;;;3.50;99.90;;;;;;5065487;28;20055;-39
2023/03/16 03:18:07;;;;;;;9.07;2.03;;;2.60;99.90;;;;;;5066023;28;20119;-39
2023/03/16 03:20:33;;;;;;;4.20;2.08;;;2.50;99.90;;;;;;5066151;28;20528;-39
2023/03/16 03:22:59;;;;;;;6.85;2.70;;;2.50;99.90;;;;;;5066836;28;20072;-39
2023/03/16 03:25:25;;;;;;;7.35;2.15;;;2.60;99.90;;;;;;5070091;28;20044;-39
2023/03/16 03:27:53;;;;;;;8.23;1.85;;;3.10;99.90;;;;;;5070075;28;20051;-39
2023/03/16 03:30:21;;;;;;;7.68;2.17;;;2.60;99.90;;;;;;5070127;28;20052;-39
2023/03/16 03:32:47;;;;;;;6.97;2.03;;;3.80;99.90;;;;;;5069233;28;20752;-39
2023/03/16 03:35:14;;;;;;;7.68;2.67;;;2.70;99.90;;;;;;5069846;28;20113;-39
2023/03/16 03:37:41;;;;;;;8.70;2.33;;;2.70;99.90;;;;;;5051338;28;20872;-39
2023/03/16 03:40:10;;;;;;;10.07;2.10;;;2.70;99.90;;;;;;5069338;28;20068;-39
2023/03/16 03:42:36;;;;;;;5.82;2.72;;;2.60;99.90;;;;;;5068862;28;20115;-39
2023/03/16 03:45:04;;;;;;;4.80;1.83;;;2.80;99.90;;;;;;5068971;28;20530;-39
2023/03/16 03:47:30;;;;;;;8.32;2.78;;;2.60;99.90;;;;;;5068599;28;20099;-38
2023/03/16 03:49:55;;;;;;;5.95;2.30;;;2.70;99.90;;;;;;5069172;28;20052;-39
2023/03/16 03:52:21;;;;;;;6.57;2.00;;;2.70;99.90;;;;;;5069218;28;20079;-39
2023/03/16 03:54:46;;;;;;;4.35;2.10;;;4.50;99.90;;;;;;5068603;28;20364;-39
2023/03/16 03:57:12;;;;;;;5.03;2.78;;;2.80;99.90;;;;;;5068761;28;20043;-39
2023/03/16 03:59:42;;;;;;;7.15;2.50;;;2.80;99.90;;;;;;5068608;28;20074;-39
2023/03/16 04:02:09;;;;;;;5.43;2.00;;;2.80;99.90;;;;;;5067120;28;20041;-39
2023/03/16 04:04:35;;;;;;;5.97;2.33;;;2.70;99.90;;;;;;5068292;28;20107;-39
2023/03/16 04:07:02;;;;;;;8.95;2.80;;;2.90;99.90;;;;;;5068722;28;20034;-39
2023/03/16 04:09:28;;;;;;;5.25;1.85;;;2.80;99.90;;;;;;5068209;28;20546;-39
2023/03/16 04:11:56;;;;;;;5.38;1.67;;;2.90;99.90;;;;;;5068601;28;20040;-39
2023/03/16 04:14:22;;;;;;;7.65;1.92;;;2.80;99.90;;;;;;5068736;28;20052;-38
2023/03/16 04:16:48;;;;;;;5.60;2.08;;;2.90;99.90;;;;;;5068272;28;20417;-39
2023/03/16 04:19:13;;;;;;;6.13;1.95;;;2.90;99.90;;;;;;5068805;28;20056;-39
2023/03/16 04:21:39;;;;;;;6.93;2.90;;;2.80;99.90;;;;;;5068535;28;20115;-39
2023/03/16 04:24:05;;;;;;;6.95;2.33;;;2.90;99.90;;;;;;5068409;28;20929;-39
2023/03/16 04:26:31;;;;;;;6.70;2.53;;;2.80;99.90;;;;;;5068787;28;20398;-39
2023/03/16 04:28:57;;;;;;;5.70;2.72;;;2.90;99.90;;;;;;5068032;28;20032;-38
2023/03/16 04:31:23;;;;;;;7.07;2.65;;;2.90;99.90;;;;;;5068184;28;20041;-39
2023/03/16 04:33:49;;;;;;;7.65;2.33;;;2.70;99.90;;;;;;5066857;28;20041;-39
2023/03/16 04:36:15;;;;;;;5.45;2.50;;;2.90;99.90;;;;;;5067601;28;20127;-39
2023/03/16 04:38:41;;;;;;;5.22;2.30;;;2.90;99.90;;;;;;5067140;28;20123;-39
2023/03/16 04:41:07;;;;;;;5.40;2.60;;;2.90;99.90;;;;;;5067271;28;20080;-39
2023/03/16 04:43:35;;;;;;;6.32;2.40;;;2.90;99.90;;;;;;5067198;28;20504;-39
2023/03/16 04:46:02;;;;;;;7.25;2.28;;;2.70;99.90;;;;;;5066639;28;20120;-39
2023/03/16 04:48:29;;;;;;;6.35;2.17;;;2.90;99.90;;;;;;5068150;28;20044;-39
2023/03/16 04:50:55;;;;;;;5.82;2.05;;;3.00;99.90;;;;;;5067626;28;20044;-39
2023/03/16 04:53:21;;;;;;;5.85;2.60;;;2.90;99.90;;;;;;5067678;28;20206;-39
2023/03/16 04:55:47;;;;;;;6.60;2.42;;;3.90;99.90;;;;;;5067643;28;20037;-39
2023/03/16 04:58:12;;;;;;;6.28;2.58;;;2.90;99.90;;;;;;5067783;28;20414;-39
2023/03/16 05:00:40;;;;;;;8.27;2.30;;;2.90;99.90;;;;;;5067430;28;20040;-39
2023/03/16 05:03:06;;;;;;;5.47;2.80;;;3.00;99.90;;;;;;5067305;28;20467;-39
2023/03/16 05:05:33;;;;;;;7.97;2.65;;;2.90;99.90;;;;;;5067426;28;20047;-39
2023/03/16 05:08:00;;;;;;;5.70;2.17;;;2.90;99.90;;;;;;5067761;28;20118;-39
2023/03/16 05:10:26;;;;;;;4.38;2.50;;;2.70;99.90;;;;;;5067770;28;20040;-38
2023/03/16 05:12:52;;;;;;;5.43;2.90;;;2.90;99.90;;;;;;5067564;28;20040;-39
2023/03/16 05:15:18;;;;;;;7.97;2.58;;;2.60;99.90;;;;;;5067543;28;20125;-39
2023/03/16 05:17:45;;;;;;;7.43;3.22;;;3.10;99.90;;;;;;5067616;28;20076;-39
2023/03/16 05:20:12;;;;;;;7.75;2.55;;;2.90;99.90;;;;;;5067370;28;20045;-39
2023/03/16 05:22:42;;;;;;;8.48;3.55;;;2.80;99.90;;;;;;5067500;28;20082;-39
2023/03/16 05:25:13;;;;;;;6.22;2.28;;;3.00;99.90;;;;;;5067521;28;20041;-39
2023/03/16 05:27:40;;;;;;;5.97;2.80;;;2.70;99.90;;;;;;5067855;28;20362;-39
2023/03/16 05:30:08;;;;;;;4.40;2.80;;;2.90;99.90;;;;;;5066986;28;20815;-39
2023/03/16 05:32:33;;;;;;;5.70;2.90;;;2.80;99.90;;;;;;5067178;28;20044;-39
2023/03/16 05:34:59;;;;;;;5.35;3.15;;;3.10;99.90;;;;;;5067019;28;20040;-39
2023/03/16 05:37:25;;;;;;;4.95;2.83;;;3.00;99.90;;;;;;5067416;28;20044;-39
2023/03/16 05:39:50;;;;;;;6.38;2.63;;;3.20;99.90;;;;;;5066937;28;20052;-39
2023/03/16 05:42:16;;;;;;;6.63;2.83;;;2.90;99.90;;;;;;5067428;28;20169;-39
2023/03/16 05:44:43;;;;;;;5.72;3.42;;;3.00;99.90;;;;;;5067200;28;20630;-38
2023/03/16 05:47:09;;;;;;;6.25;2.72;;;2.90;99.90;;;;;;5066315;28;20721;-39
2023/03/16 05:49:35;;;;;;;9.48;3.00;;;2.90;99.90;;;;;;5067364;28;20045;-39
2023/03/16 05:52:00;;;;;;;6.47;3.08;;;2.90;99.90;;;;;;5066916;28;20041;-39
2023/03/16 05:54:26;;;;;;;8.55;3.08;;;3.80;99.90;;;;;;5066641;28;20045;-39
2023/03/16 05:56:51;;;;;;;7.47;3.13;;;3.00;99.90;;;;;;5066155;28;20052;-39
2023/03/16 05:59:17;;;;;;;6.65;2.53;;;3.00;99.90;;;;;;5067025;28;20485;-39
2023/03/16 06:01:43;;;;;;;5.75;2.88;;;3.00;99.90;;;;;;5066274;28;20119;-39
2023/03/16 06:04:08;;;;;;;5.72;2.90;;;3.00;99.90;;;;;;5066593;28;20148;-39
2023/03/16 06:06:34;;;;;;;6.40;2.53;;;3.00;99.90;;;;;;5066735;28;20036;-39
2023/03/16 06:09:00;;;;;;;5.05;2.78;;;3.00;99.90;;;;;;5066678;28;20051;-39
2023/03/16 06:11:25;;;;;;;5.57;3.20;;;3.10;99.90;;;;;;5066479;28;20082;-39
2023/03/16 06:13:51;;;;;;;5.10;3.03;;;3.10;99.90;;;;;;5066059;28;20091;-39
2023/03/16 06:16:17;;;;;;;6.88;3.17;;;3.10;99.90;;;;;;5066396;28;20040;-39
2023/03/16 06:18:42;;;;;;;5.85;2.88;;;3.10;99.90;;;;;;5066135;28;20084;-39
2023/03/16 06:21:08;;;;;;;8.07;3.55;;;3.20;99.90;;;;;;5065752;28;20421;-39
2023/03/16 06:23:34;;;;;;;9.02;3.60;;;3.20;99.90;;;;;;5066355;28;20094;-39
2023/03/16 06:26:00;;;;;;;7.82;3.25;;;3.30;99.90;;;;;;5065967;28;20044;-39
2023/03/16 06:28:26;;;;;;;9.27;3.13;;;3.30;99.90;;;;;;5066049;28;20040;-39
2023/03/16 06:30:56;;;;;;;6.78;3.20;;;3.30;99.90;;;;;;5065876;28;20052;-39
2023/03/16 06:33:23;;;;;;;5.70;3.20;;;3.40;99.90;;;;;;5047981;28;20428;-39
2023/03/16 06:35:50;;;;;;;7.05;2.85;;;3.40;99.90;;;;;;5065732;28;20597;-39
2023/03/16 06:38:17;;;;;;;8.65;3.75;;;3.40;99.90;;;;;;5065884;28;20417;-39
2023/03/16 06:40:42;;;;;;;6.18;3.13;;;3.40;99.90;;;;;;5066094;28;20036;-39
2023/03/16 06:43:08;;;;;;;5.70;3.30;;;3.50;99.90;;;;;;5065702;28;20090;-39
2023/03/16 06:45:34;;;;;;;5.40;2.97;;;3.50;99.90;;;;;;5065735;28;20119;-39
2023/03/16 06:48:00;;;;;;;6.10;2.75;;;3.40;99.90;;;;;;5065700;28;20663;-39
2023/03/16 06:50:27;;;;;;;7.10;3.40;;;3.50;99.90;;;;;;5066514;28;20052;-39
2023/03/16 06:52:52;;;;;;;7.28;2.70;;;3.60;99.90;;;;;;5066512;28;20044;-39
2023/03/16 06:55:18;;;;;;;8.40;3.75;;;3.60;99.90;;;;;;5066382;28;20351;-39
2023/03/16 06:57:44;;;;;;;4.90;2.80;;;3.80;99.90;;;;;;5067919;28;20083;-39
2023/03/16 07:00:12;;;;;;;5.30;2.67;;;3.70;99.90;;;;;;5070657;28;20810;-39
2023/03/16 07:02:39;;;;;;;6.43;2.58;;;3.70;99.90;;;;;;5053214;28;20051;-39
2023/03/16 07:05:06;;;;;;;6.05;2.70;;;4.60;99.90;;;;;;5070139;28;20040;-39
2023/03/16 07:07:32;;;;;;;5.70;2.83;;;3.80;99.90;;;;;;5070177;28;20041;-39
2023/03/16 07:09:58;;;;;;;5.80;2.70;;;3.90;99.90;;;;;;5069733;28;20045;-39
2023/03/16 07:12:24;;;;;;;6.60;2.72;;;4.90;99.90;;;;;;5051541;28;20055;-39
2023/03/16 07:14:50;;;;;;;7.60;2.78;;;3.90;99.90;;;;;;5051628;28;20044;-39
2023/03/16 07:17:18;;;;;;;4.55;2.25;;;4.00;99.90;;;;;;5069965;28;20047;-39
2023/03/16 07:19:44;;;;;;;8.80;3.35;;;4.00;99.90;;;;;;5069854;28;20044;-39
2023/03/16 07:22:10;;;;;;;6.28;2.42;;;4.20;99.90;;;;;;5069862;28;20079;-39
2023/03/16 07:24:35;;;;;;;4.53;2.25;;;4.10;99.90;;;;;;5070281;28;20037;-39
2023/03/16 07:27:01;;;;;;;5.30;2.25;;;4.10;99.90;;;;;;5069072;28;20075;-39
2023/03/16 07:29:27;;;;;;;6.10;2.60;;;4.10;99.90;;;;;;5069719;28;20498;-39
2023/03/16 07:31:53;;;;;;;4.10;2.25;;;4.20;99.90;;;;;;5069200;28;20561;-39
2023/03/16 07:34:20;;;;;;;5.50;2.53;;;4.30;99.90;;;;;;5068979;28;20036;-39
2023/03/16 07:36:48;;;;;;;4.55;2.92;;;4.30;99.90;;;;;;5069004;28;20897;-39
2023/03/16 07:39:16;;;;;;;6.40;2.47;;;4.30;99.90;;;;;;5068593;28;20040;-39
2023/03/16 07:41:42;;;;;;;5.95;2.70;;;4.40;99.90;;;;;;5069505;28;20091;-39
2023/03/16 07:44:10;;;;;;;4.25;2.35;;;4.40;99.90;;;;;;5069340;28;20044;-39
2023/03/16 07:46:36;;;;;;;6.18;2.42;;;4.50;99.90;;;;;;5068994;28;20065;-39
2023/03/16 07:49:01;;;;;;;7.32;2.20;;;4.40;99.90;;;;;;5069290;28;20052;-39
2023/03/16 07:51:27;;;;;;;5.20;2.55;;;4.50;99.90;;;;;;5068687;28;20097;-39
2023/03/16 07:53:53;;;;;;;7.10;2.88;;;5.40;99.90;;;;;;5068648;28;20553;-39
2023/03/16 07:56:20;;;;;;;7.88;2.50;;;5.10;99.90;;;;;;5067952;28;20090;-39
2023/03/16 07:58:46;;;;;;;4.28;2.45;;;4.60;99.90;;;;;;5068700;28;20105;-39
2023/03/16 08:01:11;;;;;;;5.30;2.40;;;4.50;99.90;;;;;;5068142;28;20052;-39
2023/03/16 08:03:37;;;;;;;4.47;2.40;;;4.60;99.90;;;;;;5068704;28;20044;-39
2023/03/16 08:06:04;;;;;;;6.40;2.38;;;4.60;99.90;;;;;;5068657;28;20120;-39
2023/03/16 08:08:30;;;;;;;7.03;2.88;;;4.80;99.90;;;;;;5068107;28;20036;-39
2023/03/16 08:10:56;;;;;;;5.38;2.83;;;4.70;99.90;;;;;;5068077;28;20601;-39
2023/03/16 08:13:22;;;;;;;6.28;2.65;;;4.70;99.90;;;;;;5050377;28;20102;-39
2023/03/16 08:15:57;;;;;;;5.90;2.97;;;4.80;99.90;;;;;;5068750;28;20052;-39
2023/03/16 08:18:26;;;;;;;5.22;2.83;;;5.30;99.90;;;;;;5068062;28;20132;-39
2023/03/16 08:20:52;;;;;;;8.30;3.10;;;4.70;99.90;;;;;;5068476;28;20566;-39
2023/03/16 08:23:18;;;;;;;5.78;2.55;;;4.90;99.90;;;;;;5068315;28;20119;-39
2023/03/16 08:25:44;;;;;;;9.05;3.40;;;4.90;99.90;;;;;;5029166;28;20052;-39
2023/03/16 08:28:11;;;;;;;5.90;3.05;;;4.80;99.90;;;;;;5068483;28;20036;-39
2023/03/16 08:30:42;;;;;;;3.95;2.53;;;4.90;99.90;;;;;;5068665;28;20053;-39
2023/03/16 08:33:08;;;;;;;5.63;2.83;;;5.70;99.90;;;;;;5068877;28;20106;-39
2023/03/16 08:35:34;;;;;;;5.93;3.50;;;4.90;99.90;;;;;;5068196;28;20036;-39
2023/03/16 08:38:00;;;;;;;5.57;3.80;;;5.50;99.90;;;;;;5068528;28;20056;-39
2023/03/16 08:40:28;;;;;;;5.28;3.10;;;4.90;99.90;;;;;;5067715;28;20045;-39
2023/03/16 08:42:54;;;;;;;8.93;3.63;;;4.70;99.90;;;;;;5067893;28;20056;-39
2023/03/16 08:45:20;;;;;;;7.40;3.97;;;4.80;99.90;;;;;;5067631;28;20119;-39
2023/03/16 08:47:45;;;;;;;7.05;3.08;;;4.80;99.90;;;;;;5067490;28;20136;-39
2023/03/16 08:50:14;;;;;;;9.05;3.35;;;4.90;99.90;;;;;;5067396;28;20437;-39
2023/03/16 08:52:40;;;;;;;5.80;2.95;;;5.00;99.90;;;;;;5067472;28;20397;-39
2023/03/16 08:55:08;;;;;;;7.38;3.33;;;6.20;99.90;;;;;;5067079;28;20048;-39
2023/03/16 08:57:34;;;;;;;7.00;2.95;;;5.10;99.90;;;;;;5065952;28;20071;-39
2023/03/16 09:00:00;;;;;;;5.60;2.85;;;5.90;99.90;;;;;;5067054;28;20182;-39
2023/03/16 09:02:26;;;;;;;8.60;4.47;;;4.80;99.90;;;;;;5066819;28;20128;-39
2023/03/16 09:04:52;;;;;;;6.20;3.88;;;5.00;99.90;;;;;;5067252;28;20087;-39
2023/03/16 09:07:18;;;;;;;5.88;3.38;;;4.90;99.90;;;;;;5067164;28;20040;-39
2023/03/16 09:09:45;;;;;;;6.13;3.47;;;4.90;99.90;;;;;;5066752;28;20489;-39
2023/03/16 09:12:11;;;;;;;10.93;3.83;;;4.90;99.90;;;;;;5049386;28;20159;-39
2023/03/16 09:14:38;;;;;;;9.27;3.95;;;5.10;99.90;;;;;;5067670;28;20040;-39
2023/03/16 09:17:06;;;;;;;7.75;3.88;;;4.90;99.90;;;;;;5067562;28;20049;-39
2023/03/16 09:19:32;;;;;;;6.43;4.13;;;4.80;99.90;;;;;;5066790;28;20048;-39
2023/03/16 09:21:59;;;;;;;5.75;3.90;;;4.70;99.90;;;;;;5065471;28;20068;-39
2023/03/16 09:24:25;;;;;;;8.23;3.85;;;5.70;99.90;;;;;;5066159;28;20095;-39
2023/03/16 09:26:51;;;;;;;6.75;3.05;;;4.80;99.90;;;;;;5066383;28;20033;-39
2023/03/16 09:29:17;;;;;;;7.30;4.00;;;4.70;99.90;;;;;;5066827;28;20472;-39
2023/03/16 09:31:44;;;;;;;8.07;3.75;;;4.80;99.90;;;;;;5066470;28;20146;-39
2023/03/16 09:34:10;;;;;;;6.93;3.95;;;4.80;99.90;;;;;;5066778;28;20048;-39
2023/03/16 09:36:36;;;;;;;6.75;4.05;;;4.90;99.90;;;;;;5048482;28;20064;-39
2023/03/16 09:39:02;;;;;;;6.25;3.90;;;5.00;99.90;;;;;;5066726;28;20438;-39
2023/03/16 09:41:54;;;;;;;6.78;4.43;;;5.00;99.90;;;;;;5048651;28;20072;-39
2023/03/16 09:44:28;;;;;;;7.82;4.10;;;5.20;99.90;;;;;;5066894;28;20044;-39
2023/03/16 09:46:57;;;;;;;7.05;5.00;;;5.30;99.90;;;;;;5066235;28;20516;-39
2023/03/16 09:49:30;;;;;;;10.50;4.70;;;5.40;99.90;;;;;;5066303;28;20044;-39
2023/03/16 09:52:18;;;;;;;8.43;4.57;;;6.60;99.90;;;;;;5065804;28;20040;-39
2023/03/16 09:54:48;;;;;;;6.07;4.50;;;5.70;99.90;;;;;;5065795;28;20044;-39
2023/03/16 09:57:23;;;;;;;9.60;4.65;;;5.80;99.90;;;;;;5066227;28;20045;-39
2023/03/16 09:59:49;;;;;;;7.18;4.25;;;5.80;99.90;;;;;;5066269;28;20076;-39
2023/03/16 10:02:39;;;;;;;8.10;4.70;;;6.20;99.90;;;;;;5066301;28;20122;-39
2023/03/16 10:05:11;;;;;;;6.28;4.22;;;6.50;99.90;;;;;;5066493;28;20555;-40
2023/03/16 10:07:51;;;;;;;8.45;5.13;;;6.80;99.90;;;;;;5066237;28;20046;-39
2023/03/16 10:10:29;;;;;;;6.63;3.92;;;7.00;99.90;;;;;;5066459;28;20054;-40
2023/03/16 10:12:59;;;;;;;8.77;3.88;;;7.00;99.90;;;;;;5066153;28;20130;-39
2023/03/16 10:15:28;;;;;;;8.70;3.88;;;6.90;99.90;;;;;;5065902;28;20036;-39
2023/03/16 10:18:19;;;;;;;6.88;3.72;;;7.00;99.90;;;;;;5065619;28;20101;-39
2023/03/16 10:20:46;;;;;;;8.88;4.32;;;7.10;99.90;;;;;;5065472;28;20811;-39
2023/03/16 10:23:23;;;;;;;8.45;4.10;;;7.40;99.90;;;;;;5065901;28;20046;-40
2023/03/16 10:25:54;;;;;;;8.60;4.28;;;7.90;99.90;;;;;;5065074;28;20111;-40
2023/03/16 10:28:22;;;;;;;7.20;3.92;;;7.10;99.90;;;;;;5065258;28;20041;-39
2023/03/16 10:30:49;;;;;;;5.78;3.90;;;6.80;99.90;;;;;;5065137;28;20123;-39
2023/03/16 10:33:27;;;;;;;9.00;4.65;;;7.70;99.90;;;;;;5064765;28;20138;-39
2023/03/16 10:36:05;;;;;;;9.20;4.10;;;7.80;99.90;;;;;;5065824;28;20454;-39
2023/03/16 10:38:45;;;;;;;8.02;4.35;;;6.80;99.90;;;;;;5065452;28;20063;-40
2023/03/16 10:41:17;;;;;;;7.00;4.05;;;6.80;99.90;;;;;;5041042;28;20045;-39
2023/03/16 10:43:51;;;;;;;8.93;4.43;;;6.80;99.90;;;;;;5022375;28;20044;-39
2023/03/16 10:46:17;;;;;;;7.10;3.88;;;6.70;99.90;;;;;;5044758;28;20107;-39
2023/03/16 10:49:03;;;;;;;7.50;3.88;;;7.20;99.90;;;;;;5063517;28;20514;-41
2023/03/16 10:51:36;;;;;;;7.68;4.45;;;7.20;99.90;;;;;;5062290;28;20048;-40
2023/03/16 10:54:38;;;;;;;6.68;4.50;;;6.90;99.90;;;;;;5045228;28;20412;-39
2023/03/16 10:57:29;;;;;;;8.88;4.40;;;6.50;99.90;;;;;;5044907;28;20032;-40
2023/03/16 11:00:05;;;;;;;10.82;4.78;;;6.50;99.90;;;;;;5063787;28;20120;-40
2023/03/16 11:02:34;;;;;;;7.75;4.45;;;6.40;99.90;;;;;;5063308;28;20050;-39
2023/03/16 11:05:14;;;;;;;6.85;4.82;;;6.90;99.90;;;;;;5030308;28;20127;-40
2023/03/16 11:07:57;;;;;;;6.05;3.75;;;6.40;99.90;;;;;;5064681;28;20481;-40
2023/03/16 11:10:32;;;;;;;6.78;3.83;;;6.40;99.90;;;;;;5046684;28;20043;-39
2023/03/16 11:13:16;;;;;;;6.55;4.05;;;6.20;99.90;;;;;;5065761;28;20063;-40
2023/03/16 11:15:51;;;;;;;7.88;3.80;;;6.10;99.90;;;;;;5064118;28;20045;-39
2023/03/16 11:18:42;;;;;;;6.55;3.38;;;6.50;99.90;;;;;;5046402;28;20048;-39
2023/03/16 11:21:24;;;;;;;9.70;4.40;;;6.20;99.90;;;;;;4966961;28;20058;-39
2023/03/16 11:23:54;;;;;;;7.13;3.63;;;6.20;99.90;;;;;;5063834;28;20116;-39
2023/03/16 11:26:43;;;;;;;7.88;3.22;;;6.00;99.90;;;;;;5065058;28;20037;-39
2023/03/16 11:29:20;;;;;;;6.32;3.17;;;6.70;99.90;;;;;;5046373;28;20052;-39
2023/03/16 11:31:52;;;;;;;7.20;2.88;;;6.30;99.90;;;;;;5064177;28;20051;-40
2023/03/16 11:34:29;;;;;;;9.18;3.42;;;6.10;99.90;;;;;;5064704;28;20079;-41
2023/03/16 11:37:31;;;;;;;6.13;3.22;;;6.80;99.90;;;;;;5044972;28;20040;-41
2023/03/16 11:40:19;;;;;;;8.80;4.07;;;6.30;99.90;;;;;;5063978;28;20049;-39
2023/03/16 11:43:02;;;;;;;7.20;3.65;;;6.20;99.90;;;;;;5043590;28;20044;-38
2023/03/16 11:45:36;;;;;;;7.75;3.78;;;6.00;99.90;;;;;;5067019;28;20831;-39
2023/03/16 11:48:14;;;;;;;5.05;3.42;;;6.20;99.90;;;;;;5068535;28;20061;-38
2023/03/16 11:50:48;;;;;;;6.47;4.00;;;6.10;99.90;;;;;;5067608;28;20049;-42
2023/03/16 11:53:34;;;;;;;6.60;3.45;;;6.00;99.90;;;;;;5065653;28;20454;-41
2023/03/16 11:56:31;;;;;;;6.45;3.58;;;6.20;99.90;;;;;;5048088;28;20060;-41
2023/03/16 11:59:28;;;;;;;6.50;3.13;;;6.20;99.90;;;;;;5048001;28;20105;-42
2023/03/16 12:02:15;;;;;;;5.88;3.47;;;6.30;99.90;;;;;;5068065;28;20787;-40
2023/03/16 12:05:13;;;;;;;8.75;3.53;;;6.50;99.90;;;;;;5068647;28;20051;-41
2023/03/16 12:08:03;;;;;;;6.35;3.28;;;6.60;99.90;;;;;;5069310;28;20044;-41
2023/03/16 12:10:36;;;;;;;7.47;3.20;;;6.70;99.90;;;;;;5057171;28;20422;-41
2023/03/16 12:13:09;;;;;;;5.30;2.45;;;6.80;99.90;;;;;;5069747;28;20048;-41
2023/03/16 12:15:46;;;;;;;5.65;2.65;;;6.90;99.90;;;;;;5069830;28;20055;-41
2023/03/16 12:18:15;;;;;;;5.82;3.13;;;6.90;99.90;;;;;;5069213;28;20036;-41
2023/03/16 12:20:52;;;;;;;5.72;2.97;;;6.80;99.90;;;;;;5069455;28;20048;-41
2023/03/16 12:23:33;;;;;;;5.65;3.13;;;7.10;99.90;;;;;;5069089;28;20776;-41
2023/03/16 12:26:02;;;;;;;6.57;2.78;;;7.30;99.90;;;;;;5068874;28;20051;-41
2023/03/16 12:28:30;;;;;;;5.43;3.25;;;7.80;99.90;;;;;;5069091;28;20040;-41
2023/03/16 12:31:10;;;;;;;5.70;2.17;;;7.80;99.90;;;;;;5068309;28;20051;-41
2023/03/16 12:34:07;;;;;;;6.10;2.78;;;8.00;99.90;;;;;;5068041;28;20529;-41
2023/03/16 12:36:54;;;;;;;3.97;2.33;;;8.20;99.90;;;;;;5068224;28;20402;-41
2023/03/16 12:39:46;;;;;;;6.25;2.50;;;8.40;99.90;;;;;;5068287;28;20051;-42
2023/03/16 12:42:21;;;;;;;5.47;2.70;;;8.40;99.90;;;;;;5068383;28;20402;-41
2023/03/16 12:44:52;;;;;;;3.40;2.10;;;8.40;99.90;;;;;;5067744;28;20574;-41
2023/03/16 12:47:34;;;;;;;7.40;2.97;;;8.50;99.90;;;;;;5068055;28;20056;-42
2023/03/16 12:50:08;;;;;;;6.07;2.78;;;8.60;99.90;;;;;;5067673;28;20088;-41
2023/03/16 12:52:46;;;;;;;4.60;2.20;;;8.80;99.90;;;;;;5068287;28;20044;-41
2023/03/16 12:55:37;;;;;;;5.35;2.38;;;9.60;99.90;;;;;;5067935;28;20102;-41
2023/03/16 12:58:07;;;;;;;7.15;2.45;;;9.00;99.90;;;;;;5067867;28;20090;-41
2023/03/16 13:00:36;;;;;;;5.03;2.22;;;9.10;99.90;;;;;;5068424;28;20041;-41
2023/03/16 13:03:04;;;;;;;6.10;2.30;;;9.20;99.90;;;;;;5068394;28;20127;-41
2023/03/16 13:05:35;;;;;;;4.95;2.75;;;9.20;99.90;;;;;;5067977;28;20048;-41
2023/03/16 13:08:10;;;;;;;4.28;2.10;;;10.10;99.90;;;;;;5067606;28;20044;-41
2023/03/16 13:10:37;;;;;;;5.53;2.13;;;7.80;99.90;;;;;;5068163;28;20094;-41
2023/03/16 13:13:14;;;;;;;6.63;2.22;;;9.10;99.90;;;;;;5067751;28;20048;-41